sensor_id;sensor_type;location;lat;lon;timestamp;temperature;humidity
16485;DHT22;8353;47.856;12.344;2023-05-02T00:00:09;14.10;99.90
16485;DHT22;8353;47.856;12.344;2023-05-02T00:02:57;14.10;99.90
16485;DHT22;8353;47.856;12.344;2023-05-02T00:05:43;14.20;99.90
16485;DHT22;8353;47.856;12.344;2023-05-02T00:08:30;14.20;99.90
16485;DHT22;8353;47.856;12.344;2023-05-02T00:11:17;14.30;99.90
16485;DHT22;8353;47.856;12.344;2023-05-02T00:14:05;14.30;99.90
16485;DHT22;8353;47.856;12.344;2023-05-02T00:16:52;14.30;99.90
16485;DHT22;8353;47.856;12.344;2023-05-02T00:19:38;14.00;99.90
16485;DHT22;8353;47.856;12.344;2023-05-02T00:22:25;13.90;99.90
16485;DHT22;8353;47.856;12.344;2023-05-02T00:25:12;14.00;99.90
16485;DHT22;8353;47.856;12.344;2023-05-02T00:28:01;14.00;99.90
16485;DHT22;8353;47.856;12.344;2023-05-02T00:30:49;14.00;99.90
16485;DHT22;8353;47.856;12.344;2023-05-02T00:33:36;14.00;99.90
16485;DHT22;8353;47.856;12.344;2023-05-02T00:36:23;14.00;99.90
16485;DHT22;8353;47.856;12.344;2023-05-02T00:39:09;14.10;99.90
16485;DHT22;8353;47.856;12.344;2023-05-02T00:41:56;14.00;99.90
16485;DHT22;8353;47.856;12.344;2023-05-02T00:44:43;14.00;99.90
16485;DHT22;8353;47.856;12.344;2023-05-02T00:47:32;14.00;99.90
16485;DHT22;8353;47.856;12.344;2023-05-02T00:50:19;14.00;99.90
16485;DHT22;8353;47.856;12.344;2023-05-02T00:53:06;14.00;99.90
16485;DHT22;8353;47.856;12.344;2023-05-02T00:55:53;14.00;99.90
16485;DHT22;8353;47.856;12.344;2023-05-02T00:58:40;14.00;99.90
16485;DHT22;8353;47.856;12.344;2023-05-02T01:01:35;14.00;99.90
16485;DHT22;8353;47.856;12.344;2023-05-02T01:04:31;14.00;99.90
16485;DHT22;8353;47.856;12.344;2023-05-02T01:07:50;14.00;99.90
16485;DHT22;8353;47.856;12.344;2023-05-02T01:10:47;14.10;99.90
16485;DHT22;8353;47.856;12.344;2023-05-02T01:13:34;14.00;99.90
16485;DHT22;8353;47.856;12.344;2023-05-02T01:16:23;14.00;99.90
16485;DHT22;8353;47.856;12.344;2023-05-02T01:19:17;14.00;99.90
16485;DHT22;8353;47.856;12.344;2023-05-02T01:22:09;14.00;99.90
16485;DHT22;8353;47.856;12.344;2023-05-02T01:25:02;14.00;99.90
16485;DHT22;8353;47.856;12.344;2023-05-02T01:27:56;14.00;99.90
16485;DHT22;8353;47.856;12.344;2023-05-02T01:30:45;14.10;99.90
16485;DHT22;8353;47.856;12.344;2023-05-02T01:33:35;14.10;99.90
16485;DHT22;8353;47.856;12.344;2023-05-02T01:36:23;14.10;99.90
16485;DHT22;8353;47.856;12.344;2023-05-02T01:39:15;14.10;99.90
16485;DHT22;8353;47.856;12.344;2023-05-02T01:42:04;14.10;99.90
16485;DHT22;8353;47.856;12.344;2023-05-02T01:44:53;14.20;99.90
16485;DHT22;8353;47.856;12.344;2023-05-02T01:47:43;14.20;99.90
16485;DHT22;8353;47.856;12.344;2023-05-02T01:50:32;14.10;99.90
16485;DHT22;8353;47.856;12.344;2023-05-02T01:53:19;14.00;99.90
16485;DHT22;8353;47.856;12.344;2023-05-02T01:56:08;14.00;99.90
16485;DHT22;8353;47.856;12.344;2023-05-02T01:58:55;14.00;99.90
16485;DHT22;8353;47.856;12.344;2023-05-02T02:01:43;14.00;99.90
16485;DHT22;8353;47.856;12.344;2023-05-02T02:04:32;14.00;99.90
16485;DHT22;8353;47.856;12.344;2023-05-02T02:07:20;13.90;99.90
16485;DHT22;8353;47.856;12.344;2023-05-02T02:10:08;13.80;99.90
16485;DHT22;8353;47.856;12.344;2023-05-02T02:13:03;13.80;99.90
16485;DHT22;8353;47.856;12.344;2023-05-02T02:15:56;13.90;99.90
16485;DHT22;8353;47.856;12.344;2023-05-02T02:18:45;13.90;99.90
16485;DHT22;8353;47.856;12.344;2023-05-02T02:21:34;13.80;99.90
16485;DHT22;8353;47.856;12.344;2023-05-02T02:24:23;13.80;99.90
16485;DHT22;8353;47.856;12.344;2023-05-02T02:27:10;13.90;99.90
16485;DHT22;8353;47.856;12.344;2023-05-02T02:29:57;13.90;99.90
16485;DHT22;8353;47.856;12.344;2023-05-02T02:32:44;13.90;99.90
16485;DHT22;8353;47.856;12.344;2023-05-02T02:35:36;13.80;99.90
16485;DHT22;8353;47.856;12.344;2023-05-02T02:38:31;13.90;99.90
16485;DHT22;8353;47.856;12.344;2023-05-02T02:41:24;13.80;99.90
16485;DHT22;8353;47.856;12.344;2023-05-02T02:44:21;13.80;99.90
16485;DHT22;8353;47.856;12.344;2023-05-02T02:47:17;13.70;99.90
16485;DHT22;8353;47.856;12.344;2023-05-02T02:50:13;13.70;99.90
16485;DHT22;8353;47.856;12.344;2023-05-02T02:53:04;13.60;99.90
16485;DHT22;8353;47.856;12.344;2023-05-02T02:55:56;13.60;99.90
16485;DHT22;8353;47.856;12.344;2023-05-02T02:58:48;13.40;99.90
16485;DHT22;8353;47.856;12.344;2023-05-02T03:01:38;13.40;99.90
16485;DHT22;8353;47.856;12.344;2023-05-02T03:04:29;13.50;99.90
16485;DHT22;8353;47.856;12.344;2023-05-02T03:07:17;13.50;99.90
16485;DHT22;8353;47.856;12.344;2023-05-02T03:10:04;13.50;99.90
16485;DHT22;8353;47.856;12.344;2023-05-02T03:12:52;13.60;99.90
16485;DHT22;8353;47.856;12.344;2023-05-02T03:16:11;13.60;99.90
16485;DHT22;8353;47.856;12.344;2023-05-02T03:19:04;13.50;99.90
16485;DHT22;8353;47.856;12.344;2023-05-02T03:21:51;13.50;99.90
16485;DHT22;8353;47.856;12.344;2023-05-02T03:24:38;13.60;99.90
16485;DHT22;8353;47.856;12.344;2023-05-02T03:27:25;13.50;99.90
16485;DHT22;8353;47.856;12.344;2023-05-02T03:30:13;13.50;99.90
16485;DHT22;8353;47.856;12.344;2023-05-02T03:33:00;13.50;99.90
16485;DHT22;8353;47.856;12.344;2023-05-02T03:35:49;13.50;99.90
16485;DHT22;8353;47.856;12.344;2023-05-02T03:38:35;13.50;99.90
16485;DHT22;8353;47.856;12.344;2023-05-02T03:41:22;13.50;99.90
16485;DHT22;8353;47.856;12.344;2023-05-02T03:44:10;13.50;99.90
16485;DHT22;8353;47.856;12.344;2023-05-02T03:46:58;13.50;99.90
16485;DHT22;8353;47.856;12.344;2023-05-02T03:49:45;13.50;99.90
16485;DHT22;8353;47.856;12.344;2023-05-02T03:52:32;13.50;99.90
16485;DHT22;8353;47.856;12.344;2023-05-02T03:55:19;13.40;99.90
16485;DHT22;8353;47.856;12.344;2023-05-02T03:58:09;13.50;99.90
16485;DHT22;8353;47.856;12.344;2023-05-02T04:00:56;13.40;99.90
16485;DHT22;8353;47.856;12.344;2023-05-02T04:03:44;13.40;99.90
16485;DHT22;8353;47.856;12.344;2023-05-02T04:06:31;13.40;99.90
16485;DHT22;8353;47.856;12.344;2023-05-02T04:09:18;13.30;99.90
16485;DHT22;8353;47.856;12.344;2023-05-02T04:12:09;13.30;99.90
16485;DHT22;8353;47.856;12.344;2023-05-02T04:14:56;13.40;99.90
16485;DHT22;8353;47.856;12.344;2023-05-02T04:17:44;13.30;99.90
16485;DHT22;8353;47.856;12.344;2023-05-02T04:20:33;13.40;99.90
16485;DHT22;8353;47.856;12.344;2023-05-02T04:23:20;13.50;99.90
16485;DHT22;8353;47.856;12.344;2023-05-02T04:26:07;13.40;99.90
16485;DHT22;8353;47.856;12.344;2023-05-02T04:28:53;13.50;99.90
16485;DHT22;8353;47.856;12.344;2023-05-02T04:31:40;13.50;99.90
16485;DHT22;8353;47.856;12.344;2023-05-02T04:34:27;13.60;99.90
16485;DHT22;8353;47.856;12.344;2023-05-02T04:37:16;13.60;99.90
16485;DHT22;8353;47.856;12.344;2023-05-02T04:40:03;13.70;99.90
16485;DHT22;8353;47.856;12.344;2023-05-02T04:42:50;13.70;99.90
16485;DHT22;8353;47.856;12.344;2023-05-02T04:45:37;13.80;99.90
16485;DHT22;8353;47.856;12.344;2023-05-02T04:48:24;13.70;99.90
16485;DHT22;8353;47.856;12.344;2023-05-02T04:51:10;13.70;99.90
16485;DHT22;8353;47.856;12.344;2023-05-02T04:53:59;13.60;99.90
16485;DHT22;8353;47.856;12.344;2023-05-02T04:56:45;13.60;99.90
16485;DHT22;8353;47.856;12.344;2023-05-02T04:59:32;13.60;99.90
16485;DHT22;8353;47.856;12.344;2023-05-02T05:02:19;13.60;99.90
16485;DHT22;8353;47.856;12.344;2023-05-02T05:05:06;13.60;99.90
16485;DHT22;8353;47.856;12.344;2023-05-02T05:07:54;13.60;99.90
16485;DHT22;8353;47.856;12.344;2023-05-02T05:10:42;13.60;99.90
16485;DHT22;8353;47.856;12.344;2023-05-02T05:13:28;13.60;99.90
16485;DHT22;8353;47.856;12.344;2023-05-02T05:16:16;13.60;99.90
16485;DHT22;8353;47.856;12.344;2023-05-02T05:19:03;13.60;99.90
16485;DHT22;8353;47.856;12.344;2023-05-02T05:21:50;13.60;99.90
16485;DHT22;8353;47.856;12.344;2023-05-02T05:24:37;13.60;99.90
16485;DHT22;8353;47.856;12.344;2023-05-02T05:27:25;13.60;99.90
16485;DHT22;8353;47.856;12.344;2023-05-02T05:30:11;13.50;99.90
16485;DHT22;8353;47.856;12.344;2023-05-02T05:32:58;13.50;99.90
16485;DHT22;8353;47.856;12.344;2023-05-02T05:35:45;13.60;99.90
16485;DHT22;8353;47.856;12.344;2023-05-02T05:38:33;13.60;99.90
16485;DHT22;8353;47.856;12.344;2023-05-02T05:41:21;13.60;99.90
16485;DHT22;8353;47.856;12.344;2023-05-02T05:44:10;13.50;99.90
16485;DHT22;8353;47.856;12.344;2023-05-02T05:46:57;13.50;99.90
16485;DHT22;8353;47.856;12.344;2023-05-02T05:49:43;13.50;99.90
16485;DHT22;8353;47.856;12.344;2023-05-02T05:52:30;13.60;99.90
16485;DHT22;8353;47.856;12.344;2023-05-02T05:55:17;13.70;99.90
16485;DHT22;8353;47.856;12.344;2023-05-02T05:58:04;13.70;99.90
16485;DHT22;8353;47.856;12.344;2023-05-02T06:00:57;13.70;99.90
16485;DHT22;8353;47.856;12.344;2023-05-02T06:03:44;13.70;99.90
16485;DHT22;8353;47.856;12.344;2023-05-02T06:06:33;13.70;99.90
16485;DHT22;8353;47.856;12.344;2023-05-02T06:09:20;13.70;99.90
16485;DHT22;8353;47.856;12.344;2023-05-02T06:12:08;13.70;99.90
16485;DHT22;8353;47.856;12.344;2023-05-02T06:14:55;13.90;99.90
16485;DHT22;8353;47.856;12.344;2023-05-02T06:17:43;13.80;99.90
16485;DHT22;8353;47.856;12.344;2023-05-02T06:20:34;13.80;99.90
16485;DHT22;8353;47.856;12.344;2023-05-02T06:23:21;13.70;99.90
16485;DHT22;8353;47.856;12.344;2023-05-02T06:26:08;13.70;99.90
16485;DHT22;8353;47.856;12.344;2023-05-02T06:28:56;13.70;99.90
16485;DHT22;8353;47.856;12.344;2023-05-02T06:31:48;13.80;99.90
16485;DHT22;8353;47.856;12.344;2023-05-02T06:34:37;13.80;99.90
16485;DHT22;8353;47.856;12.344;2023-05-02T06:37:24;13.90;99.90
16485;DHT22;8353;47.856;12.344;2023-05-02T06:40:11;14.00;99.90
16485;DHT22;8353;47.856;12.344;2023-05-02T06:42:58;14.00;99.90
16485;DHT22;8353;47.856;12.344;2023-05-02T06:45:45;14.00;99.90
16485;DHT22;8353;47.856;12.344;2023-05-02T06:48:32;14.00;99.90
16485;DHT22;8353;47.856;12.344;2023-05-02T06:51:20;14.10;99.90
16485;DHT22;8353;47.856;12.344;2023-05-02T06:54:08;14.10;99.90
16485;DHT22;8353;47.856;12.344;2023-05-02T06:56:54;14.20;99.90
16485;DHT22;8353;47.856;12.344;2023-05-02T06:59:41;14.30;99.90
16485;DHT22;8353;47.856;12.344;2023-05-02T07:02:30;14.40;99.90
16485;DHT22;8353;47.856;12.344;2023-05-02T07:05:17;14.40;99.90
16485;DHT22;8353;47.856;12.344;2023-05-02T07:08:06;14.40;99.90
16485;DHT22;8353;47.856;12.344;2023-05-02T07:10:53;14.40;99.90
16485;DHT22;8353;47.856;12.344;2023-05-02T07:13:42;14.50;99.90
16485;DHT22;8353;47.856;12.344;2023-05-02T07:16:28;14.50;99.90
16485;DHT22;8353;47.856;12.344;2023-05-02T07:19:17;14.50;99.90
16485;DHT22;8353;47.856;12.344;2023-05-02T07:22:05;14.50;99.90
16485;DHT22;8353;47.856;12.344;2023-05-02T07:24:58;14.60;99.90
16485;DHT22;8353;47.856;12.344;2023-05-02T07:27:45;14.60;99.90
16485;DHT22;8353;47.856;12.344;2023-05-02T07:30:32;14.60;99.90
16485;DHT22;8353;47.856;12.344;2023-05-02T07:33:19;14.60;99.90
16485;DHT22;8353;47.856;12.344;2023-05-02T07:36:05;14.80;99.90
16485;DHT22;8353;47.856;12.344;2023-05-02T07:38:52;14.80;99.90
16485;DHT22;8353;47.856;12.344;2023-05-02T07:41:40;14.90;99.90
16485;DHT22;8353;47.856;12.344;2023-05-02T07:44:27;14.90;99.90
16485;DHT22;8353;47.856;12.344;2023-05-02T07:47:16;14.80;99.90
16485;DHT22;8353;47.856;12.344;2023-05-02T07:50:03;15.00;99.90
16485;DHT22;8353;47.856;12.344;2023-05-02T07:52:49;15.10;99.90
16485;DHT22;8353;47.856;12.344;2023-05-02T07:55:36;15.20;99.90
16485;DHT22;8353;47.856;12.344;2023-05-02T07:58:24;15.30;99.90
16485;DHT22;8353;47.856;12.344;2023-05-02T08:01:11;15.30;99.90
16485;DHT22;8353;47.856;12.344;2023-05-02T08:03:58;15.50;99.90
16485;DHT22;8353;47.856;12.344;2023-05-02T08:06:45;15.50;99.90
16485;DHT22;8353;47.856;12.344;2023-05-02T08:09:32;15.50;99.90
16485;DHT22;8353;47.856;12.344;2023-05-02T08:12:18;15.70;99.90
16485;DHT22;8353;47.856;12.344;2023-05-02T08:15:09;15.80;99.90
16485;DHT22;8353;47.856;12.344;2023-05-02T08:17:56;15.80;99.90
16485;DHT22;8353;47.856;12.344;2023-05-02T08:20:44;15.90;99.90
16485;DHT22;8353;47.856;12.344;2023-05-02T08:23:30;15.90;99.90
16485;DHT22;8353;47.856;12.344;2023-05-02T08:26:17;16.00;99.90
16485;DHT22;8353;47.856;12.344;2023-05-02T08:29:07;15.90;99.90
16485;DHT22;8353;47.856;12.344;2023-05-02T08:31:57;16.00;99.90
16485;DHT22;8353;47.856;12.344;2023-05-02T08:34:44;16.10;99.90
16485;DHT22;8353;47.856;12.344;2023-05-02T08:37:31;16.20;99.90
16485;DHT22;8353;47.856;12.344;2023-05-02T08:40:19;16.20;99.90
16485;DHT22;8353;47.856;12.344;2023-05-02T08:43:10;16.30;99.90
16485;DHT22;8353;47.856;12.344;2023-05-02T08:45:58;16.30;99.90
16485;DHT22;8353;47.856;12.344;2023-05-02T08:48:49;16.30;99.90
16485;DHT22;8353;47.856;12.344;2023-05-02T08:51:37;16.40;99.90
16485;DHT22;8353;47.856;12.344;2023-05-02T08:54:24;16.50;99.90
16485;DHT22;8353;47.856;12.344;2023-05-02T08:57:12;16.50;99.90
16485;DHT22;8353;47.856;12.344;2023-05-02T08:59:58;16.50;99.90
16485;DHT22;8353;47.856;12.344;2023-05-02T09:02:55;16.60;99.90
16485;DHT22;8353;47.856;12.344;2023-05-02T09:05:45;16.70;99.90
16485;DHT22;8353;47.856;12.344;2023-05-02T09:08:36;16.90;99.90
16485;DHT22;8353;47.856;12.344;2023-05-02T09:11:23;16.90;99.90
16485;DHT22;8353;47.856;12.344;2023-05-02T09:14:13;17.00;99.90
16485;DHT22;8353;47.856;12.344;2023-05-02T09:17:00;16.90;99.90
16485;DHT22;8353;47.856;12.344;2023-05-02T09:19:58;16.90;99.90
16485;DHT22;8353;47.856;12.344;2023-05-02T09:22:51;17.00;99.90
16485;DHT22;8353;47.856;12.344;2023-05-02T09:25:39;17.00;99.90
16485;DHT22;8353;47.856;12.344;2023-05-02T09:28:40;17.30;99.90
16485;DHT22;8353;47.856;12.344;2023-05-02T09:31:29;17.10;99.90
16485;DHT22;8353;47.856;12.344;2023-05-02T09:34:18;17.20;99.90
16485;DHT22;8353;47.856;12.344;2023-05-02T09:37:05;17.20;99.90
16485;DHT22;8353;47.856;12.344;2023-05-02T09:40:06;17.10;99.90
16485;DHT22;8353;47.856;12.344;2023-05-02T09:42:55;17.20;99.90
16485;DHT22;8353;47.856;12.344;2023-05-02T09:45:55;17.40;99.90
16485;DHT22;8353;47.856;12.344;2023-05-02T09:48:51;17.50;99.90
16485;DHT22;8353;47.856;12.344;2023-05-02T09:51:40;17.50;99.90
16485;DHT22;8353;47.856;12.344;2023-05-02T09:54:33;17.50;99.90
16485;DHT22;8353;47.856;12.344;2023-05-02T09:57:38;17.50;99.90
16485;DHT22;8353;47.856;12.344;2023-05-02T10:00:40;17.60;99.90
16485;DHT22;8353;47.856;12.344;2023-05-02T10:03:29;17.80;99.90
16485;DHT22;8353;47.856;12.344;2023-05-02T10:06:18;17.90;99.90
16485;DHT22;8353;47.856;12.344;2023-05-02T10:09:06;17.60;99.90
16485;DHT22;8353;47.856;12.344;2023-05-02T10:11:55;17.60;99.90
16485;DHT22;8353;47.856;12.344;2023-05-02T10:14:47;17.80;99.90
16485;DHT22;8353;47.856;12.344;2023-05-02T10:17:39;17.90;99.90
16485;DHT22;8353;47.856;12.344;2023-05-02T10:20:31;17.90;99.90
16485;DHT22;8353;47.856;12.344;2023-05-02T10:23:20;18.10;99.90
16485;DHT22;8353;47.856;12.344;2023-05-02T10:26:08;18.20;99.90
16485;DHT22;8353;47.856;12.344;2023-05-02T10:28:56;18.10;99.90
16485;DHT22;8353;47.856;12.344;2023-05-02T10:31:45;18.00;99.90
16485;DHT22;8353;47.856;12.344;2023-05-02T10:34:34;18.10;99.90
16485;DHT22;8353;47.856;12.344;2023-05-02T10:37:22;18.10;99.90
16485;DHT22;8353;47.856;12.344;2023-05-02T10:40:11;18.10;99.90
16485;DHT22;8353;47.856;12.344;2023-05-02T10:42:58;18.10;99.90
16485;DHT22;8353;47.856;12.344;2023-05-02T10:45:45;18.10;99.90
16485;DHT22;8353;47.856;12.344;2023-05-02T10:48:33;18.10;99.90
16485;DHT22;8353;47.856;12.344;2023-05-02T10:51:26;17.90;99.90
16485;DHT22;8353;47.856;12.344;2023-05-02T10:54:23;17.70;99.90
16485;DHT22;8353;47.856;12.344;2023-05-02T10:57:10;17.80;99.90
16485;DHT22;8353;47.856;12.344;2023-05-02T11:00:20;17.90;99.90
16485;DHT22;8353;47.856;12.344;2023-05-02T11:03:07;18.00;99.90
16485;DHT22;8353;47.856;12.344;2023-05-02T11:06:05;18.10;99.90
16485;DHT22;8353;47.856;12.344;2023-05-02T11:08:52;18.10;99.90
16485;DHT22;8353;47.856;12.344;2023-05-02T11:11:40;18.00;99.90
16485;DHT22;8353;47.856;12.344;2023-05-02T11:14:45;18.10;99.90
16485;DHT22;8353;47.856;12.344;2023-05-02T11:17:57;18.20;99.90
16485;DHT22;8353;47.856;12.344;2023-05-02T11:20:44;18.10;99.90
16485;DHT22;8353;47.856;12.344;2023-05-02T11:23:32;18.10;99.90
16485;DHT22;8353;47.856;12.344;2023-05-02T11:26:21;18.10;99.90
16485;DHT22;8353;47.856;12.344;2023-05-02T11:29:10;18.30;99.90
16485;DHT22;8353;47.856;12.344;2023-05-02T11:31:57;18.10;99.90
16485;DHT22;8353;47.856;12.344;2023-05-02T11:34:44;18.20;99.90
16485;DHT22;8353;47.856;12.344;2023-05-02T11:37:32;18.30;99.90
16485;DHT22;8353;47.856;12.344;2023-05-02T11:40:20;18.30;99.90
16485;DHT22;8353;47.856;12.344;2023-05-02T11:43:14;18.20;99.90
16485;DHT22;8353;47.856;12.344;2023-05-02T11:46:01;18.20;99.90
16485;DHT22;8353;47.856;12.344;2023-05-02T11:48:50;18.20;99.90
16485;DHT22;8353;47.856;12.344;2023-05-02T11:51:37;18.30;99.90
16485;DHT22;8353;47.856;12.344;2023-05-02T11:54:24;18.50;99.90
16485;DHT22;8353;47.856;12.344;2023-05-02T11:57:16;18.50;99.90
16485;DHT22;8353;47.856;12.344;2023-05-02T12:00:04;18.50;99.90
16485;DHT22;8353;47.856;12.344;2023-05-02T12:02:52;18.50;99.90
16485;DHT22;8353;47.856;12.344;2023-05-02T12:05:39;18.60;99.90
16485;DHT22;8353;47.856;12.344;2023-05-02T12:08:26;18.60;99.90
16485;DHT22;8353;47.856;12.344;2023-05-02T12:11:14;18.80;99.90
16485;DHT22;8353;47.856;12.344;2023-05-02T12:14:08;18.70;99.90
16485;DHT22;8353;47.856;12.344;2023-05-02T12:16:56;18.80;99.90
16485;DHT22;8353;47.856;12.344;2023-05-02T12:19:43;18.80;99.90
16485;DHT22;8353;47.856;12.344;2023-05-02T12:22:30;18.80;99.90
16485;DHT22;8353;47.856;12.344;2023-05-02T12:25:17;18.80;99.90
16485;DHT22;8353;47.856;12.344;2023-05-02T12:28:04;18.60;99.90
16485;DHT22;8353;47.856;12.344;2023-05-02T12:30:53;18.30;99.90
16485;DHT22;8353;47.856;12.344;2023-05-02T12:33:45;18.20;99.90
16485;DHT22;8353;47.856;12.344;2023-05-02T12:36:33;18.10;99.90
16485;DHT22;8353;47.856;12.344;2023-05-02T12:39:33;18.20;99.90
16485;DHT22;8353;47.856;12.344;2023-05-02T12:42:22;18.30;99.90
16485;DHT22;8353;47.856;12.344;2023-05-02T12:45:16;18.20;99.90
16485;DHT22;8353;47.856;12.344;2023-05-02T12:48:19;18.30;99.90
16485;DHT22;8353;47.856;12.344;2023-05-02T12:51:15;18.40;99.90
16485;DHT22;8353;47.856;12.344;2023-05-02T12:54:18;18.50;99.90
16485;DHT22;8353;47.856;12.344;2023-05-02T12:57:05;18.40;99.90
16485;DHT22;8353;47.856;12.344;2023-05-02T12:59:52;18.50;99.90
16485;DHT22;8353;47.856;12.344;2023-05-02T13:02:39;18.40;99.90
16485;DHT22;8353;47.856;12.344;2023-05-02T13:05:27;18.50;99.90
16485;DHT22;8353;47.856;12.344;2023-05-02T13:08:14;18.60;99.90
16485;DHT22;8353;47.856;12.344;2023-05-02T13:11:01;18.80;99.90
16485;DHT22;8353;47.856;12.344;2023-05-02T13:13:50;18.80;99.90
16485;DHT22;8353;47.856;12.344;2023-05-02T13:16:38;18.90;99.90
16485;DHT22;8353;47.856;12.344;2023-05-02T13:19:24;18.70;99.90
16485;DHT22;8353;47.856;12.344;2023-05-02T13:22:17;18.70;99.90
16485;DHT22;8353;47.856;12.344;2023-05-02T13:25:05;18.60;99.90
16485;DHT22;8353;47.856;12.344;2023-05-02T13:27:52;18.40;99.90
16485;DHT22;8353;47.856;12.344;2023-05-02T13:30:40;18.50;99.90
16485;DHT22;8353;47.856;12.344;2023-05-02T13:33:28;17.80;99.90
16485;DHT22;8353;47.856;12.344;2023-05-02T13:36:15;17.40;99.90
16485;DHT22;8353;47.856;12.344;2023-05-02T13:39:03;17.30;99.90
16485;DHT22;8353;47.856;12.344;2023-05-02T13:41:50;17.20;99.90
16485;DHT22;8353;47.856;12.344;2023-05-02T13:44:37;17.30;99.90
16485;DHT22;8353;47.856;12.344;2023-05-02T13:47:23;17.40;99.90
16485;DHT22;8353;47.856;12.344;2023-05-02T13:50:10;17.60;99.90
16485;DHT22;8353;47.856;12.344;2023-05-02T13:52:57;17.70;99.90
16485;DHT22;8353;47.856;12.344;2023-05-02T13:55:45;17.60;99.90
16485;DHT22;8353;47.856;12.344;2023-05-02T13:58:32;17.20;99.90
16485;DHT22;8353;47.856;12.344;2023-05-02T14:01:19;16.90;99.90
16485;DHT22;8353;47.856;12.344;2023-05-02T14:04:06;16.90;99.90
16485;DHT22;8353;47.856;12.344;2023-05-02T14:06:53;17.10;99.90
16485;DHT22;8353;47.856;12.344;2023-05-02T14:09:44;16.90;99.90
16485;DHT22;8353;47.856;12.344;2023-05-02T14:12:32;16.70;99.90
16485;DHT22;8353;47.856;12.344;2023-05-02T14:15:19;16.30;99.90
16485;DHT22;8353;47.856;12.344;2023-05-02T14:18:06;15.90;99.90
16485;DHT22;8353;47.856;12.344;2023-05-02T14:20:53;15.60;99.90
16485;DHT22;8353;47.856;12.344;2023-05-02T14:23:40;15.70;99.90
16485;DHT22;8353;47.856;12.344;2023-05-02T14:26:26;15.70;99.90
16485;DHT22;8353;47.856;12.344;2023-05-02T14:29:14;15.90;99.90
16485;DHT22;8353;47.856;12.344;2023-05-02T14:32:01;16.00;99.90
16485;DHT22;8353;47.856;12.344;2023-05-02T14:34:48;16.10;99.90
16485;DHT22;8353;47.856;12.344;2023-05-02T14:37:34;16.00;99.90
16485;DHT22;8353;47.856;12.344;2023-05-02T14:40:21;15.80;99.90
16485;DHT22;8353;47.856;12.344;2023-05-02T14:43:08;15.90;99.90
16485;DHT22;8353;47.856;12.344;2023-05-02T14:45:57;15.90;99.90
16485;DHT22;8353;47.856;12.344;2023-05-02T14:48:44;15.90;99.90
16485;DHT22;8353;47.856;12.344;2023-05-02T14:51:31;15.90;99.90
16485;DHT22;8353;47.856;12.344;2023-05-02T14:54:25;15.90;99.90
16485;DHT22;8353;47.856;12.344;2023-05-02T14:57:12;16.00;99.90
16485;DHT22;8353;47.856;12.344;2023-05-02T14:59:59;16.00;99.90
16485;DHT22;8353;47.856;12.344;2023-05-02T15:03:12;16.00;99.90
16485;DHT22;8353;47.856;12.344;2023-05-02T15:05:59;15.90;99.90
16485;DHT22;8353;47.856;12.344;2023-05-02T15:08:46;16.00;99.90
16485;DHT22;8353;47.856;12.344;2023-05-02T15:11:35;15.90;99.90
16485;DHT22;8353;47.856;12.344;2023-05-02T15:14:22;16.10;99.90
16485;DHT22;8353;47.856;12.344;2023-05-02T15:17:09;16.00;99.90
16485;DHT22;8353;47.856;12.344;2023-05-02T15:19:57;16.10;99.90
16485;DHT22;8353;47.856;12.344;2023-05-02T15:22:43;15.90;99.90
16485;DHT22;8353;47.856;12.344;2023-05-02T15:25:30;16.00;99.90
16485;DHT22;8353;47.856;12.344;2023-05-02T15:28:17;16.00;99.90
16485;DHT22;8353;47.856;12.344;2023-05-02T15:31:04;15.90;99.90
16485;DHT22;8353;47.856;12.344;2023-05-02T15:33:51;15.80;99.90
16485;DHT22;8353;47.856;12.344;2023-05-02T15:36:39;15.60;99.90
16485;DHT22;8353;47.856;12.344;2023-05-02T15:39:26;15.60;99.90
16485;DHT22;8353;47.856;12.344;2023-05-02T15:42:12;15.60;99.90
16485;DHT22;8353;47.856;12.344;2023-05-02T15:44:59;15.60;99.90
16485;DHT22;8353;47.856;12.344;2023-05-02T15:47:46;15.50;99.90
16485;DHT22;8353;47.856;12.344;2023-05-02T15:50:32;15.40;99.90
16485;DHT22;8353;47.856;12.344;2023-05-02T15:53:21;15.60;99.90
16485;DHT22;8353;47.856;12.344;2023-05-02T15:56:08;15.40;99.90
16485;DHT22;8353;47.856;12.344;2023-05-02T15:58:54;15.40;99.90
16485;DHT22;8353;47.856;12.344;2023-05-02T16:01:41;15.40;99.90
16485;DHT22;8353;47.856;12.344;2023-05-02T16:04:28;15.40;99.90
16485;DHT22;8353;47.856;12.344;2023-05-02T16:07:16;15.30;99.90
16485;DHT22;8353;47.856;12.344;2023-05-02T16:10:05;15.40;99.90
16485;DHT22;8353;47.856;12.344;2023-05-02T16:12:54;15.50;99.90
16485;DHT22;8353;47.856;12.344;2023-05-02T16:15:41;15.50;99.90
16485;DHT22;8353;47.856;12.344;2023-05-02T16:18:28;15.60;99.90
16485;DHT22;8353;47.856;12.344;2023-05-02T16:21:15;15.70;99.90
16485;DHT22;8353;47.856;12.344;2023-05-02T16:24:02;15.70;99.90
16485;DHT22;8353;47.856;12.344;2023-05-02T16:26:50;15.70;99.90
16485;DHT22;8353;47.856;12.344;2023-05-02T16:29:37;15.70;99.90
16485;DHT22;8353;47.856;12.344;2023-05-02T16:32:24;15.60;99.90
16485;DHT22;8353;47.856;12.344;2023-05-02T16:35:12;15.50;99.90
16485;DHT22;8353;47.856;12.344;2023-05-02T16:38:00;15.50;99.90
16485;DHT22;8353;47.856;12.344;2023-05-02T16:40:46;15.50;99.90
16485;DHT22;8353;47.856;12.344;2023-05-02T16:43:35;15.60;99.90
16485;DHT22;8353;47.856;12.344;2023-05-02T16:46:22;15.70;99.90
16485;DHT22;8353;47.856;12.344;2023-05-02T16:49:09;15.70;99.90
16485;DHT22;8353;47.856;12.344;2023-05-02T16:51:56;15.70;99.90
16485;DHT22;8353;47.856;12.344;2023-05-02T16:54:42;15.70;99.90
16485;DHT22;8353;47.856;12.344;2023-05-02T16:57:29;15.70;99.90
16485;DHT22;8353;47.856;12.344;2023-05-02T17:00:18;15.80;99.90
16485;DHT22;8353;47.856;12.344;2023-05-02T17:03:05;15.90;99.90
16485;DHT22;8353;47.856;12.344;2023-05-02T17:05:52;16.00;99.90
16485;DHT22;8353;47.856;12.344;2023-05-02T17:08:38;16.10;99.90
16485;DHT22;8353;47.856;12.344;2023-05-02T17:11:25;16.10;99.90
16485;DHT22;8353;47.856;12.344;2023-05-02T17:14:13;16.10;99.90
16485;DHT22;8353;47.856;12.344;2023-05-02T17:17:02;16.10;99.90
16485;DHT22;8353;47.856;12.344;2023-05-02T17:19:49;16.10;99.90
16485;DHT22;8353;47.856;12.344;2023-05-02T17:22:36;16.10;99.90
16485;DHT22;8353;47.856;12.344;2023-05-02T17:25:24;16.00;99.90
16485;DHT22;8353;47.856;12.344;2023-05-02T17:28:10;16.00;99.90
16485;DHT22;8353;47.856;12.344;2023-05-02T17:30:57;16.00;99.90
16485;DHT22;8353;47.856;12.344;2023-05-02T17:33:46;16.10;99.90
16485;DHT22;8353;47.856;12.344;2023-05-02T17:36:32;16.10;99.90
16485;DHT22;8353;47.856;12.344;2023-05-02T17:39:20;16.00;99.90
16485;DHT22;8353;47.856;12.344;2023-05-02T17:42:07;16.00;99.90
16485;DHT22;8353;47.856;12.344;2023-05-02T17:44:54;15.90;99.90